sensor_id;sensor_type;location;lat;lon;timestamp;P1;durP1;ratioP1;P2;durP2;ratioP2
13481;SDS011;6813;60.352;15.746;2022-12-07T00:00:52;3.47;;;1.60;;
13481;SDS011;6813;60.352;15.746;2022-12-07T00:03:17;1.80;;;1.00;;
13481;SDS011;6813;60.352;15.746;2022-12-07T00:05:43;4.20;;;1.47;;
13481;SDS011;6813;60.352;15.746;2022-12-07T00:08:09;3.67;;;1.10;;
13481;SDS011;6813;60.352;15.746;2022-12-07T00:10:35;3.17;;;0.83;;
13481;SDS011;6813;60.352;15.746;2022-12-07T00:13:00;1.40;;;0.97;;
13481;SDS011;6813;60.352;15.746;2022-12-07T00:15:26;1.77;;;0.87;;
13481;SDS011;6813;60.352;15.746;2022-12-07T00:17:52;2.30;;;0.90;;
13481;SDS011;6813;60.352;15.746;2022-12-07T00:20:17;1.77;;;1.07;;
13481;SDS011;6813;60.352;15.746;2022-12-07T00:22:43;1.70;;;1.00;;
13481;SDS011;6813;60.352;15.746;2022-12-07T00:25:09;1.30;;;1.00;;
13481;SDS011;6813;60.352;15.746;2022-12-07T00:27:35;1.97;;;1.37;;
13481;SDS011;6813;60.352;15.746;2022-12-07T00:30:01;1.87;;;1.33;;
13481;SDS011;6813;60.352;15.746;2022-12-07T00:32:27;2.37;;;1.10;;
13481;SDS011;6813;60.352;15.746;2022-12-07T00:34:53;3.50;;;1.40;;
13481;SDS011;6813;60.352;15.746;2022-12-07T00:37:19;2.63;;;1.60;;
13481;SDS011;6813;60.352;15.746;2022-12-07T00:39:45;1.40;;;0.97;;
13481;SDS011;6813;60.352;15.746;2022-12-07T00:42:11;2.50;;;1.30;;
13481;SDS011;6813;60.352;15.746;2022-12-07T00:44:38;2.23;;;1.00;;
13481;SDS011;6813;60.352;15.746;2022-12-07T00:47:04;1.70;;;0.93;;
13481;SDS011;6813;60.352;15.746;2022-12-07T00:49:29;2.23;;;1.03;;
13481;SDS011;6813;60.352;15.746;2022-12-07T00:51:55;4.93;;;1.30;;
13481;SDS011;6813;60.352;15.746;2022-12-07T00:54:21;3.27;;;1.20;;
13481;SDS011;6813;60.352;15.746;2022-12-07T00:56:46;3.77;;;1.20;;
13481;SDS011;6813;60.352;15.746;2022-12-07T00:59:13;1.43;;;1.17;;
13481;SDS011;6813;60.352;15.746;2022-12-07T01:01:40;1.80;;;1.10;;
13481;SDS011;6813;60.352;15.746;2022-12-07T01:04:06;1.53;;;1.20;;
13481;SDS011;6813;60.352;15.746;2022-12-07T01:06:31;4.20;;;1.23;;
13481;SDS011;6813;60.352;15.746;2022-12-07T01:08:57;2.30;;;1.00;;
13481;SDS011;6813;60.352;15.746;2022-12-07T01:11:25;1.80;;;1.20;;
13481;SDS011;6813;60.352;15.746;2022-12-07T01:13:53;1.73;;;1.07;;
13481;SDS011;6813;60.352;15.746;2022-12-07T01:16:20;2.37;;;1.10;;
13481;SDS011;6813;60.352;15.746;2022-12-07T01:18:47;3.50;;;1.07;;
13481;SDS011;6813;60.352;15.746;2022-12-07T01:23:42;1.97;;;0.90;;
13481;SDS011;6813;60.352;15.746;2022-12-07T01:26:10;2.07;;;0.90;;
13481;SDS011;6813;60.352;15.746;2022-12-07T01:28:37;1.53;;;0.97;;
13481;SDS011;6813;60.352;15.746;2022-12-07T01:31:07;2.87;;;1.50;;
13481;SDS011;6813;60.352;15.746;2022-12-07T01:33:40;2.10;;;1.37;;
13481;SDS011;6813;60.352;15.746;2022-12-07T01:36:15;1.80;;;0.93;;
13481;SDS011;6813;60.352;15.746;2022-12-07T01:38:42;2.77;;;1.20;;
13481;SDS011;6813;60.352;15.746;2022-12-07T01:41:09;3.20;;;1.10;;
13481;SDS011;6813;60.352;15.746;2022-12-07T01:43:35;1.90;;;0.90;;
13481;SDS011;6813;60.352;15.746;2022-12-07T01:46:02;3.40;;;1.27;;
13481;SDS011;6813;60.352;15.746;2022-12-07T01:48:33;1.20;;;0.93;;
13481;SDS011;6813;60.352;15.746;2022-12-07T01:51:04;2.23;;;0.90;;
13481;SDS011;6813;60.352;15.746;2022-12-07T01:53:34;0.80;;;0.77;;
13481;SDS011;6813;60.352;15.746;2022-12-07T01:56:02;2.73;;;0.90;;
13481;SDS011;6813;60.352;15.746;2022-12-07T01:58:28;1.47;;;0.93;;
13481;SDS011;6813;60.352;15.746;2022-12-07T02:00:54;1.93;;;0.70;;
13481;SDS011;6813;60.352;15.746;2022-12-07T02:03:29;3.47;;;1.20;;
13481;SDS011;6813;60.352;15.746;2022-12-07T02:05:59;1.50;;;0.70;;
13481;SDS011;6813;60.352;15.746;2022-12-07T02:08:25;3.10;;;1.30;;
13481;SDS011;6813;60.352;15.746;2022-12-07T02:10:52;1.53;;;1.10;;
13481;SDS011;6813;60.352;15.746;2022-12-07T02:13:31;3.43;;;1.33;;
13481;SDS011;6813;60.352;15.746;2022-12-07T02:30:02;0.63;;;0.60;;
13481;SDS011;6813;60.352;15.746;2022-12-07T02:35:06;0.83;;;0.83;;
13481;SDS011;6813;60.352;15.746;2022-12-07T02:42:42;2.33;;;1.00;;
13481;SDS011;6813;60.352;15.746;2022-12-07T02:45:12;1.73;;;1.17;;
13481;SDS011;6813;60.352;15.746;2022-12-07T02:47:42;3.40;;;1.10;;
13481;SDS011;6813;60.352;15.746;2022-12-07T02:50:09;2.80;;;1.07;;
13481;SDS011;6813;60.352;15.746;2022-12-07T02:52:35;1.50;;;1.10;;
13481;SDS011;6813;60.352;15.746;2022-12-07T02:55:01;1.30;;;0.90;;
13481;SDS011;6813;60.352;15.746;2022-12-07T02:58:06;1.47;;;1.10;;
13481;SDS011;6813;60.352;15.746;2022-12-07T03:00:44;2.43;;;1.47;;
13481;SDS011;6813;60.352;15.746;2022-12-07T03:03:28;5.17;;;1.00;;
13481;SDS011;6813;60.352;15.746;2022-12-07T03:06:06;1.80;;;1.10;;
13481;SDS011;6813;60.352;15.746;2022-12-07T03:11:21;1.90;;;0.70;;
13481;SDS011;6813;60.352;15.746;2022-12-07T03:19:27;2.17;;;1.20;;
13481;SDS011;6813;60.352;15.746;2022-12-07T03:21:57;1.83;;;1.27;;
13481;SDS011;6813;60.352;15.746;2022-12-07T03:24:31;1.40;;;1.00;;
13481;SDS011;6813;60.352;15.746;2022-12-07T03:27:06;1.27;;;1.03;;
13481;SDS011;6813;60.352;15.746;2022-12-07T03:30:22;1.97;;;1.17;;
13481;SDS011;6813;60.352;15.746;2022-12-07T03:32:39;2.00;;;1.20;;
13481;SDS011;6813;60.352;15.746;2022-12-07T03:37:45;3.23;;;1.10;;
13481;SDS011;6813;60.352;15.746;2022-12-07T03:43:04;3.10;;;1.23;;
13481;SDS011;6813;60.352;15.746;2022-12-07T03:45:41;2.30;;;1.17;;
13481;SDS011;6813;60.352;15.746;2022-12-07T03:48:11;2.07;;;1.50;;
13481;SDS011;6813;60.352;15.746;2022-12-07T03:51:06;2.17;;;1.50;;
13481;SDS011;6813;60.352;15.746;2022-12-07T03:56:54;1.80;;;1.03;;
13481;SDS011;6813;60.352;15.746;2022-12-07T03:59:21;1.97;;;1.13;;
13481;SDS011;6813;60.352;15.746;2022-12-07T04:01:53;2.23;;;1.60;;
13481;SDS011;6813;60.352;15.746;2022-12-07T04:04:21;2.67;;;1.40;;
13481;SDS011;6813;60.352;15.746;2022-12-07T04:06:49;1.87;;;1.40;;
13481;SDS011;6813;60.352;15.746;2022-12-07T04:09:15;3.73;;;1.87;;
13481;SDS011;6813;60.352;15.746;2022-12-07T04:11:41;3.80;;;1.77;;
13481;SDS011;6813;60.352;15.746;2022-12-07T04:14:08;3.03;;;1.57;;
13481;SDS011;6813;60.352;15.746;2022-12-07T04:16:44;3.13;;;1.47;;
13481;SDS011;6813;60.352;15.746;2022-12-07T04:19:10;2.27;;;1.37;;
13481;SDS011;6813;60.352;15.746;2022-12-07T04:21:36;1.20;;;1.10;;
13481;SDS011;6813;60.352;15.746;2022-12-07T04:24:02;1.00;;;0.90;;
13481;SDS011;6813;60.352;15.746;2022-12-07T04:26:28;1.20;;;1.10;;
13481;SDS011;6813;60.352;15.746;2022-12-07T04:28:54;1.63;;;1.00;;
13481;SDS011;6813;60.352;15.746;2022-12-07T04:31:20;2.43;;;1.20;;
13481;SDS011;6813;60.352;15.746;2022-12-07T04:33:46;1.07;;;0.90;;
13481;SDS011;6813;60.352;15.746;2022-12-07T04:36:11;2.77;;;1.37;;
13481;SDS011;6813;60.352;15.746;2022-12-07T04:38:37;0.77;;;0.77;;
13481;SDS011;6813;60.352;15.746;2022-12-07T04:41:06;1.23;;;1.10;;
13481;SDS011;6813;60.352;15.746;2022-12-07T04:43:33;1.80;;;1.27;;
13481;SDS011;6813;60.352;15.746;2022-12-07T04:45:59;1.70;;;1.20;;
13481;SDS011;6813;60.352;15.746;2022-12-07T04:48:25;1.20;;;1.10;;
13481;SDS011;6813;60.352;15.746;2022-12-07T04:50:52;1.70;;;0.50;;
13481;SDS011;6813;60.352;15.746;2022-12-07T04:53:17;2.83;;;1.40;;
13481;SDS011;6813;60.352;15.746;2022-12-07T04:55:44;2.20;;;1.00;;
13481;SDS011;6813;60.352;15.746;2022-12-07T04:58:11;2.90;;;0.80;;
13481;SDS011;6813;60.352;15.746;2022-12-07T05:00:37;1.87;;;0.60;;
13481;SDS011;6813;60.352;15.746;2022-12-07T05:03:03;1.17;;;0.80;;
13481;SDS011;6813;60.352;15.746;2022-12-07T05:05:29;1.10;;;1.00;;
13481;SDS011;6813;60.352;15.746;2022-12-07T05:07:54;1.50;;;0.60;;
13481;SDS011;6813;60.352;15.746;2022-12-07T05:10:20;6.07;;;1.27;;
13481;SDS011;6813;60.352;15.746;2022-12-07T05:12:46;1.93;;;1.17;;
13481;SDS011;6813;60.352;15.746;2022-12-07T05:15:13;3.47;;;1.50;;
13481;SDS011;6813;60.352;15.746;2022-12-07T05:17:40;1.50;;;1.40;;
13481;SDS011;6813;60.352;15.746;2022-12-07T05:20:06;2.50;;;1.83;;
13481;SDS011;6813;60.352;15.746;2022-12-07T05:22:33;2.20;;;1.80;;
13481;SDS011;6813;60.352;15.746;2022-12-07T05:24:59;20.50;;;4.93;;
13481;SDS011;6813;60.352;15.746;2022-12-07T05:27:24;10.90;;;3.70;;
13481;SDS011;6813;60.352;15.746;2022-12-07T05:29:50;7.13;;;3.63;;
13481;SDS011;6813;60.352;15.746;2022-12-07T05:32:17;3.30;;;1.50;;
13481;SDS011;6813;60.352;15.746;2022-12-07T05:34:43;6.70;;;3.50;;
13481;SDS011;6813;60.352;15.746;2022-12-07T05:37:08;4.63;;;2.20;;
13481;SDS011;6813;60.352;15.746;2022-12-07T05:39:34;5.60;;;1.80;;
13481;SDS011;6813;60.352;15.746;2022-12-07T05:42:00;3.80;;;2.30;;
13481;SDS011;6813;60.352;15.746;2022-12-07T05:44:38;3.00;;;2.00;;
13481;SDS011;6813;60.352;15.746;2022-12-07T05:47:04;4.07;;;1.73;;
13481;SDS011;6813;60.352;15.746;2022-12-07T05:49:30;3.27;;;1.80;;
13481;SDS011;6813;60.352;15.746;2022-12-07T05:51:56;3.00;;;2.03;;
13481;SDS011;6813;60.352;15.746;2022-12-07T05:54:22;5.73;;;2.27;;
13481;SDS011;6813;60.352;15.746;2022-12-07T05:56:47;15.63;;;2.43;;
13481;SDS011;6813;60.352;15.746;2022-12-07T05:59:13;7.93;;;2.67;;
13481;SDS011;6813;60.352;15.746;2022-12-07T06:01:54;8.20;;;3.03;;
13481;SDS011;6813;60.352;15.746;2022-12-07T06:04:28;14.97;;;2.37;;
13481;SDS011;6813;60.352;15.746;2022-12-07T06:06:56;4.77;;;1.80;;
13481;SDS011;6813;60.352;15.746;2022-12-07T06:09:22;6.40;;;1.20;;
13481;SDS011;6813;60.352;15.746;2022-12-07T06:11:49;23.73;;;2.20;;
13481;SDS011;6813;60.352;15.746;2022-12-07T06:14:34;8.97;;;2.07;;
13481;SDS011;6813;60.352;15.746;2022-12-07T06:17:00;13.93;;;6.37;;
13481;SDS011;6813;60.352;15.746;2022-12-07T06:19:26;10.77;;;5.13;;
13481;SDS011;6813;60.352;15.746;2022-12-07T06:21:51;14.50;;;4.73;;
13481;SDS011;6813;60.352;15.746;2022-12-07T06:24:18;6.77;;;2.93;;
13481;SDS011;6813;60.352;15.746;2022-12-07T06:26:44;6.00;;;3.70;;
13481;SDS011;6813;60.352;15.746;2022-12-07T06:29:10;5.53;;;3.50;;
13481;SDS011;6813;60.352;15.746;2022-12-07T06:31:36;7.27;;;4.47;;
13481;SDS011;6813;60.352;15.746;2022-12-07T06:34:04;6.37;;;3.80;;
13481;SDS011;6813;60.352;15.746;2022-12-07T06:36:31;5.07;;;3.33;;
13481;SDS011;6813;60.352;15.746;2022-12-07T06:38:57;4.30;;;2.40;;
13481;SDS011;6813;60.352;15.746;2022-12-07T06:41:23;2.87;;;1.97;;
13481;SDS011;6813;60.352;15.746;2022-12-07T06:43:49;3.93;;;1.60;;
13481;SDS011;6813;60.352;15.746;2022-12-07T06:46:15;12.67;;;2.77;;
13481;SDS011;6813;60.352;15.746;2022-12-07T06:48:41;10.50;;;2.40;;
13481;SDS011;6813;60.352;15.746;2022-12-07T06:51:07;15.40;;;2.37;;
13481;SDS011;6813;60.352;15.746;2022-12-07T06:53:34;2.83;;;1.10;;
13481;SDS011;6813;60.352;15.746;2022-12-07T06:56:00;1.47;;;1.20;;
13481;SDS011;6813;60.352;15.746;2022-12-07T06:58:25;1.43;;;0.97;;
13481;SDS011;6813;60.352;15.746;2022-12-07T07:00:51;2.80;;;1.70;;
13481;SDS011;6813;60.352;15.746;2022-12-07T07:03:17;2.13;;;1.50;;
13481;SDS011;6813;60.352;15.746;2022-12-07T07:05:43;3.13;;;1.40;;
13481;SDS011;6813;60.352;15.746;2022-12-07T07:08:09;2.23;;;1.60;;
13481;SDS011;6813;60.352;15.746;2022-12-07T07:10:35;5.53;;;1.50;;
13481;SDS011;6813;60.352;15.746;2022-12-07T07:13:01;5.77;;;1.27;;
13481;SDS011;6813;60.352;15.746;2022-12-07T07:15:28;2.20;;;0.80;;
13481;SDS011;6813;60.352;15.746;2022-12-07T07:17:54;2.57;;;0.90;;
13481;SDS011;6813;60.352;15.746;2022-12-07T07:20:20;2.83;;;0.67;;
13481;SDS011;6813;60.352;15.746;2022-12-07T07:22:45;5.53;;;1.30;;
13481;SDS011;6813;60.352;15.746;2022-12-07T07:25:11;18.53;;;2.10;;
13481;SDS011;6813;60.352;15.746;2022-12-07T07:27:37;9.57;;;1.20;;
13481;SDS011;6813;60.352;15.746;2022-12-07T07:30:03;23.43;;;1.83;;
13481;SDS011;6813;60.352;15.746;2022-12-07T07:32:30;10.13;;;1.87;;
13481;SDS011;6813;60.352;15.746;2022-12-07T07:34:55;6.83;;;2.10;;
13481;SDS011;6813;60.352;15.746;2022-12-07T07:37:21;6.43;;;2.20;;
13481;SDS011;6813;60.352;15.746;2022-12-07T07:39:47;10.13;;;1.77;;
13481;SDS011;6813;60.352;15.746;2022-12-07T07:42:12;7.37;;;1.90;;
13481;SDS011;6813;60.352;15.746;2022-12-07T07:44:38;7.57;;;1.53;;
13481;SDS011;6813;60.352;15.746;2022-12-07T07:47:04;13.27;;;1.70;;
13481;SDS011;6813;60.352;15.746;2022-12-07T07:49:30;12.30;;;1.90;;
13481;SDS011;6813;60.352;15.746;2022-12-07T07:51:55;18.60;;;1.60;;
13481;SDS011;6813;60.352;15.746;2022-12-07T07:54:21;7.83;;;2.13;;
13481;SDS011;6813;60.352;15.746;2022-12-07T07:56:47;7.67;;;2.10;;
13481;SDS011;6813;60.352;15.746;2022-12-07T07:59:13;3.77;;;1.90;;
13481;SDS011;6813;60.352;15.746;2022-12-07T08:01:40;7.90;;;1.93;;
13481;SDS011;6813;60.352;15.746;2022-12-07T08:04:05;7.60;;;1.90;;
13481;SDS011;6813;60.352;15.746;2022-12-07T08:06:31;2.93;;;1.90;;
13481;SDS011;6813;60.352;15.746;2022-12-07T08:08:57;3.27;;;1.83;;
13481;SDS011;6813;60.352;15.746;2022-12-07T08:11:23;4.67;;;2.03;;
13481;SDS011;6813;60.352;15.746;2022-12-07T08:13:49;7.93;;;2.70;;
13481;SDS011;6813;60.352;15.746;2022-12-07T08:16:15;18.33;;;3.20;;
13481;SDS011;6813;60.352;15.746;2022-12-07T08:18:41;22.53;;;4.83;;
13481;SDS011;6813;60.352;15.746;2022-12-07T08:21:09;13.80;;;6.67;;
13481;SDS011;6813;60.352;15.746;2022-12-07T08:23:37;17.77;;;5.93;;
13481;SDS011;6813;60.352;15.746;2022-12-07T08:26:04;20.07;;;7.80;;
13481;SDS011;6813;60.352;15.746;2022-12-07T08:28:34;31.13;;;9.53;;
13481;SDS011;6813;60.352;15.746;2022-12-07T08:31:01;17.03;;;7.77;;
13481;SDS011;6813;60.352;15.746;2022-12-07T08:33:36;16.43;;;7.10;;
13481;SDS011;6813;60.352;15.746;2022-12-07T08:36:03;14.50;;;5.50;;
13481;SDS011;6813;60.352;15.746;2022-12-07T08:38:30;11.57;;;4.07;;
13481;SDS011;6813;60.352;15.746;2022-12-07T08:40:57;8.47;;;4.33;;
13481;SDS011;6813;60.352;15.746;2022-12-07T08:43:23;7.23;;;4.03;;
13481;SDS011;6813;60.352;15.746;2022-12-07T08:45:52;17.10;;;4.70;;
13481;SDS011;6813;60.352;15.746;2022-12-07T08:48:41;11.67;;;4.23;;
13481;SDS011;6813;60.352;15.746;2022-12-07T08:51:13;24.83;;;5.43;;
13481;SDS011;6813;60.352;15.746;2022-12-07T08:53:39;16.67;;;5.90;;
13481;SDS011;6813;60.352;15.746;2022-12-07T08:56:05;14.37;;;5.50;;
13481;SDS011;6813;60.352;15.746;2022-12-07T08:58:33;12.20;;;4.53;;
13481;SDS011;6813;60.352;15.746;2022-12-07T09:01:00;9.30;;;4.07;;
13481;SDS011;6813;60.352;15.746;2022-12-07T09:03:25;13.33;;;4.80;;
13481;SDS011;6813;60.352;15.746;2022-12-07T09:05:52;6.40;;;4.17;;
13481;SDS011;6813;60.352;15.746;2022-12-07T09:08:19;9.20;;;3.50;;
13481;SDS011;6813;60.352;15.746;2022-12-07T09:10:46;3.50;;;2.03;;
13481;SDS011;6813;60.352;15.746;2022-12-07T09:13:12;3.17;;;2.20;;
13481;SDS011;6813;60.352;15.746;2022-12-07T09:15:38;7.03;;;2.40;;
13481;SDS011;6813;60.352;15.746;2022-12-07T09:18:04;5.43;;;2.20;;
13481;SDS011;6813;60.352;15.746;2022-12-07T09:20:30;5.07;;;2.30;;
13481;SDS011;6813;60.352;15.746;2022-12-07T09:22:56;5.13;;;2.70;;
13481;SDS011;6813;60.352;15.746;2022-12-07T09:25:21;5.20;;;2.23;;
13481;SDS011;6813;60.352;15.746;2022-12-07T09:27:47;3.40;;;1.77;;
13481;SDS011;6813;60.352;15.746;2022-12-07T09:30:13;4.07;;;1.90;;
13481;SDS011;6813;60.352;15.746;2022-12-07T09:32:38;6.27;;;2.83;;
13481;SDS011;6813;60.352;15.746;2022-12-07T09:35:04;9.87;;;3.30;;
13481;SDS011;6813;60.352;15.746;2022-12-07T09:37:30;6.27;;;2.93;;
13481;SDS011;6813;60.352;15.746;2022-12-07T09:40:00;11.50;;;3.33;;
13481;SDS011;6813;60.352;15.746;2022-12-07T09:44:59;18.30;;;3.10;;
13481;SDS011;6813;60.352;15.746;2022-12-07T09:47:26;5.17;;;2.17;;
13481;SDS011;6813;60.352;15.746;2022-12-07T09:49:54;8.33;;;2.20;;
13481;SDS011;6813;60.352;15.746;2022-12-07T09:52:28;6.83;;;2.30;;
13481;SDS011;6813;60.352;15.746;2022-12-07T09:54:54;4.77;;;2.10;;
13481;SDS011;6813;60.352;15.746;2022-12-07T09:57:23;5.87;;;2.40;;
13481;SDS011;6813;60.352;15.746;2022-12-07T09:59:59;5.20;;;2.97;;
13481;SDS011;6813;60.352;15.746;2022-12-07T10:02:38;7.27;;;2.73;;
13481;SDS011;6813;60.352;15.746;2022-12-07T10:05:44;3.20;;;1.83;;
13481;SDS011;6813;60.352;15.746;2022-12-07T10:08:04;4.97;;;3.43;;
13481;SDS011;6813;60.352;15.746;2022-12-07T10:10:31;3.93;;;2.10;;
13481;SDS011;6813;60.352;15.746;2022-12-07T10:13:00;3.40;;;1.83;;
13481;SDS011;6813;60.352;15.746;2022-12-07T10:24:01;1.63;;;1.07;;
13481;SDS011;6813;60.352;15.746;2022-12-07T10:28:58;5.60;;;1.27;;
13481;SDS011;6813;60.352;15.746;2022-12-07T10:31:25;1.50;;;0.90;;
13481;SDS011;6813;60.352;15.746;2022-12-07T10:33:55;2.83;;;1.40;;
13481;SDS011;6813;60.352;15.746;2022-12-07T10:39:10;6.73;;;1.20;;
13481;SDS011;6813;60.352;15.746;2022-12-07T10:44:27;2.77;;;1.10;;
13481;SDS011;6813;60.352;15.746;2022-12-07T10:50:29;3.00;;;1.20;;
13481;SDS011;6813;60.352;15.746;2022-12-07T10:53:15;0.83;;;0.80;;
13481;SDS011;6813;60.352;15.746;2022-12-07T11:03:25;0.90;;;0.77;;
13481;SDS011;6813;60.352;15.746;2022-12-07T11:11:58;1.07;;;1.00;;
13481;SDS011;6813;60.352;15.746;2022-12-07T11:14:42;1.53;;;1.00;;
13481;SDS011;6813;60.352;15.746;2022-12-07T11:17:23;3.00;;;1.00;;
13481;SDS011;6813;60.352;15.746;2022-12-07T11:31:18;3.10;;;1.17;;
13481;SDS011;6813;60.352;15.746;2022-12-07T11:33:49;1.70;;;0.90;;
13481;SDS011;6813;60.352;15.746;2022-12-07T11:36:37;3.47;;;0.90;;
13481;SDS011;6813;60.352;15.746;2022-12-07T11:39:16;2.50;;;0.70;;
13481;SDS011;6813;60.352;15.746;2022-12-07T11:44:56;2.83;;;0.90;;
13481;SDS011;6813;60.352;15.746;2022-12-07T11:50:10;1.70;;;0.93;;
13481;SDS011;6813;60.352;15.746;2022-12-07T11:53:03;2.70;;;1.10;;
13481;SDS011;6813;60.352;15.746;2022-12-07T12:03:51;3.40;;;1.00;;
13481;SDS011;6813;60.352;15.746;2022-12-07T12:06:22;0.73;;;0.70;;
13481;SDS011;6813;60.352;15.746;2022-12-07T12:19:45;1.53;;;1.03;;
13481;SDS011;6813;60.352;15.746;2022-12-07T12:22:26;9.30;;;1.37;;
13481;SDS011;6813;60.352;15.746;2022-12-07T12:24:59;3.33;;;1.20;;
13481;SDS011;6813;60.352;15.746;2022-12-07T12:27:37;2.30;;;0.90;;
13481;SDS011;6813;60.352;15.746;2022-12-07T12:30:05;4.87;;;3.80;;
13481;SDS011;6813;60.352;15.746;2022-12-07T12:32:48;2.43;;;0.87;;
13481;SDS011;6813;60.352;15.746;2022-12-07T12:35:31;1.87;;;1.50;;
13481;SDS011;6813;60.352;15.746;2022-12-07T12:41:24;0.87;;;0.60;;
13481;SDS011;6813;60.352;15.746;2022-12-07T12:46:54;2.27;;;0.87;;
13481;SDS011;6813;60.352;15.746;2022-12-07T12:51:56;3.03;;;0.90;;
13481;SDS011;6813;60.352;15.746;2022-12-07T12:54:24;5.23;;;1.00;;
13481;SDS011;6813;60.352;15.746;2022-12-07T12:59:36;8.40;;;3.33;;
13481;SDS011;6813;60.352;15.746;2022-12-07T13:13:03;1.03;;;0.47;;
13481;SDS011;6813;60.352;15.746;2022-12-07T13:18:23;6.03;;;0.60;;
13481;SDS011;6813;60.352;15.746;2022-12-07T13:20:52;2.60;;;0.87;;
13481;SDS011;6813;60.352;15.746;2022-12-07T13:23:22;2.40;;;0.77;;
13481;SDS011;6813;60.352;15.746;2022-12-07T13:26:13;1.97;;;0.83;;
13481;SDS011;6813;60.352;15.746;2022-12-07T13:28:47;1.27;;;0.70;;
13481;SDS011;6813;60.352;15.746;2022-12-07T13:34:00;1.03;;;0.60;;
13481;SDS011;6813;60.352;15.746;2022-12-07T13:36:27;1.07;;;0.60;;
13481;SDS011;6813;60.352;15.746;2022-12-07T13:39:11;4.83;;;1.30;;
13481;SDS011;6813;60.352;15.746;2022-12-07T13:41:44;2.20;;;1.30;;
13481;SDS011;6813;60.352;15.746;2022-12-07T13:44:15;1.77;;;1.13;;
13481;SDS011;6813;60.352;15.746;2022-12-07T13:46:51;24.63;;;2.40;;
13481;SDS011;6813;60.352;15.746;2022-12-07T13:51:51;8.30;;;1.70;;
13481;SDS011;6813;60.352;15.746;2022-12-07T13:54:18;3.53;;;1.70;;
13481;SDS011;6813;60.352;15.746;2022-12-07T13:56:46;5.13;;;1.40;;
13481;SDS011;6813;60.352;15.746;2022-12-07T13:59:18;2.77;;;1.33;;
13481;SDS011;6813;60.352;15.746;2022-12-07T14:01:46;2.83;;;1.33;;
13481;SDS011;6813;60.352;15.746;2022-12-07T14:04:32;4.00;;;1.30;;
13481;SDS011;6813;60.352;15.746;2022-12-07T14:07:00;1.97;;;1.57;;
13481;SDS011;6813;60.352;15.746;2022-12-07T14:09:52;4.17;;;1.70;;
13481;SDS011;6813;60.352;15.746;2022-12-07T14:12:19;6.17;;;2.63;;
13481;SDS011;6813;60.352;15.746;2022-12-07T14:14:48;6.77;;;3.20;;
13481;SDS011;6813;60.352;15.746;2022-12-07T14:17:24;15.80;;;5.80;;
13481;SDS011;6813;60.352;15.746;2022-12-07T14:19:52;7.90;;;3.83;;
13481;SDS011;6813;60.352;15.746;2022-12-07T14:22:24;6.80;;;2.07;;
13481;SDS011;6813;60.352;15.746;2022-12-07T14:25:01;5.87;;;2.00;;
13481;SDS011;6813;60.352;15.746;2022-12-07T14:27:58;3.30;;;2.20;;
13481;SDS011;6813;60.352;15.746;2022-12-07T14:30:27;5.70;;;2.20;;
13481;SDS011;6813;60.352;15.746;2022-12-07T14:33:00;5.37;;;2.10;;
13481;SDS011;6813;60.352;15.746;2022-12-07T14:35:29;25.20;;;3.00;;
13481;SDS011;6813;60.352;15.746;2022-12-07T14:37:56;12.53;;;2.93;;
13481;SDS011;6813;60.352;15.746;2022-12-07T14:40:26;9.87;;;3.03;;
13481;SDS011;6813;60.352;15.746;2022-12-07T14:42:55;10.50;;;3.87;;
13481;SDS011;6813;60.352;15.746;2022-12-07T14:45:30;13.70;;;3.73;;
13481;SDS011;6813;60.352;15.746;2022-12-07T14:47:56;11.30;;;3.27;;
13481;SDS011;6813;60.352;15.746;2022-12-07T14:50:22;24.07;;;4.03;;
13481;SDS011;6813;60.352;15.746;2022-12-07T14:52:50;8.87;;;2.30;;
13481;SDS011;6813;60.352;15.746;2022-12-07T14:55:25;5.13;;;2.67;;
13481;SDS011;6813;60.352;15.746;2022-12-07T14:57:53;3.97;;;2.60;;
13481;SDS011;6813;60.352;15.746;2022-12-07T15:00:19;2.67;;;1.70;;
13481;SDS011;6813;60.352;15.746;2022-12-07T15:02:47;4.57;;;1.97;;
13481;SDS011;6813;60.352;15.746;2022-12-07T15:05:13;5.10;;;2.87;;
13481;SDS011;6813;60.352;15.746;2022-12-07T15:07:39;13.07;;;4.63;;
13481;SDS011;6813;60.352;15.746;2022-12-07T15:10:06;21.20;;;7.33;;
13481;SDS011;6813;60.352;15.746;2022-12-07T15:13:03;12.40;;;6.23;;
13481;SDS011;6813;60.352;15.746;2022-12-07T15:15:48;22.90;;;7.50;;
13481;SDS011;6813;60.352;15.746;2022-12-07T15:18:16;25.37;;;7.83;;
13481;SDS011;6813;60.352;15.746;2022-12-07T15:20:42;21.07;;;5.47;;
13481;SDS011;6813;60.352;15.746;2022-12-07T15:23:09;22.97;;;3.87;;
13481;SDS011;6813;60.352;15.746;2022-12-07T15:25:35;24.97;;;4.13;;
13481;SDS011;6813;60.352;15.746;2022-12-07T15:28:01;24.70;;;3.43;;
13481;SDS011;6813;60.352;15.746;2022-12-07T15:30:27;14.17;;;4.87;;
13481;SDS011;6813;60.352;15.746;2022-12-07T15:32:53;47.17;;;5.43;;
13481;SDS011;6813;60.352;15.746;2022-12-07T15:35:19;40.63;;;3.57;;
13481;SDS011;6813;60.352;15.746;2022-12-07T15:37:45;45.67;;;4.37;;
13481;SDS011;6813;60.352;15.746;2022-12-07T15:40:11;26.70;;;3.60;;
13481;SDS011;6813;60.352;15.746;2022-12-07T15:42:38;25.60;;;3.47;;
13481;SDS011;6813;60.352;15.746;2022-12-07T15:45:05;25.07;;;3.70;;
13481;SDS011;6813;60.352;15.746;2022-12-07T15:47:37;62.97;;;5.07;;
13481;SDS011;6813;60.352;15.746;2022-12-07T15:50:05;12.40;;;4.13;;
13481;SDS011;6813;60.352;15.746;2022-12-07T15:52:32;9.10;;;4.27;;
13481;SDS011;6813;60.352;15.746;2022-12-07T15:54:58;23.40;;;7.50;;
13481;SDS011;6813;60.352;15.746;2022-12-07T15:57:28;26.57;;;6.77;;
13481;SDS011;6813;60.352;15.746;2022-12-07T15:59:54;29.27;;;5.47;;
13481;SDS011;6813;60.352;15.746;2022-12-07T16:02:20;12.40;;;5.10;;
13481;SDS011;6813;60.352;15.746;2022-12-07T16:04:47;37.07;;;5.50;;
13481;SDS011;6813;60.352;15.746;2022-12-07T16:07:13;30.77;;;7.13;;
13481;SDS011;6813;60.352;15.746;2022-12-07T16:09:41;16.83;;;6.17;;
13481;SDS011;6813;60.352;15.746;2022-12-07T16:12:07;20.73;;;7.03;;
13481;SDS011;6813;60.352;15.746;2022-12-07T16:14:33;12.33;;;5.67;;
13481;SDS011;6813;60.352;15.746;2022-12-07T16:16:59;16.67;;;5.70;;
13481;SDS011;6813;60.352;15.746;2022-12-07T16:19:25;6.63;;;3.83;;
13481;SDS011;6813;60.352;15.746;2022-12-07T16:21:51;12.13;;;4.73;;
13481;SDS011;6813;60.352;15.746;2022-12-07T16:24:16;16.47;;;4.97;;
13481;SDS011;6813;60.352;15.746;2022-12-07T16:26:42;21.03;;;5.63;;
13481;SDS011;6813;60.352;15.746;2022-12-07T16:29:10;14.70;;;4.97;;
13481;SDS011;6813;60.352;15.746;2022-12-07T16:31:38;13.53;;;5.33;;
13481;SDS011;6813;60.352;15.746;2022-12-07T16:34:04;25.97;;;5.70;;
13481;SDS011;6813;60.352;15.746;2022-12-07T16:36:31;10.37;;;4.23;;
13481;SDS011;6813;60.352;15.746;2022-12-07T16:39:00;12.47;;;4.67;;
13481;SDS011;6813;60.352;15.746;2022-12-07T16:41:27;11.37;;;4.60;;
13481;SDS011;6813;60.352;15.746;2022-12-07T16:43:53;32.93;;;5.60;;
13481;SDS011;6813;60.352;15.746;2022-12-07T16:46:19;19.00;;;5.80;;
13481;SDS011;6813;60.352;15.746;2022-12-07T16:48:45;22.23;;;7.13;;
13481;SDS011;6813;60.352;15.746;2022-12-07T16:51:11;16.20;;;6.20;;
13481;SDS011;6813;60.352;15.746;2022-12-07T16:53:39;19.17;;;7.27;;
13481;SDS011;6813;60.352;15.746;2022-12-07T16:56:14;8.60;;;4.07;;
13481;SDS011;6813;60.352;15.746;2022-12-07T16:58:44;19.37;;;5.43;;
13481;SDS011;6813;60.352;15.746;2022-12-07T17:01:13;18.67;;;5.33;;
13481;SDS011;6813;60.352;15.746;2022-12-07T17:03:43;22.67;;;9.67;;
13481;SDS011;6813;60.352;15.746;2022-12-07T17:06:19;41.87;;;17.83;;
13481;SDS011;6813;60.352;15.746;2022-12-07T17:08:46;34.80;;;18.53;;
13481;SDS011;6813;60.352;15.746;2022-12-07T17:11:16;29.27;;;11.97;;
13481;SDS011;6813;60.352;15.746;2022-12-07T17:13:46;28.90;;;10.63;;
13481;SDS011;6813;60.352;15.746;2022-12-07T17:16:30;24.23;;;9.70;;
13481;SDS011;6813;60.352;15.746;2022-12-07T17:18:56;26.30;;;11.30;;